createdAt,value
2018-12-08T00:00:42.811Z,58.50
2018-12-08T00:10:45.305Z,59.00
2018-12-08T00:20:47.788Z,59.00
2018-12-08T00:31:02.156Z,59.70
2018-12-08T00:41:04.616Z,58.20
2018-12-08T00:51:07.076Z,58.60
2018-12-08T01:01:10.095Z,57.20
2018-12-08T01:11:12.550Z,57.60
2018-12-08T01:21:15.052Z,57.10
2018-12-08T01:31:17.539Z,55.80
2018-12-08T01:41:20.004Z,56.30
2018-12-08T01:51:22.451Z,55.30
2018-12-08T02:01:24.906Z,55.50
2018-12-08T02:11:27.387Z,55.20
2018-12-08T02:21:29.882Z,55.60
2018-12-08T02:31:32.339Z,55.40
2018-12-08T02:41:34.806Z,55.70
2018-12-08T02:51:37.258Z,56.20
2018-12-08T03:01:39.717Z,56.40
2018-12-08T03:11:42.175Z,57.10
2018-12-08T03:21:44.630Z,59.60
2018-12-08T03:31:47.093Z,61.60
2018-12-08T03:41:49.579Z,63.40
2018-12-08T03:51:52.051Z,63.30
2018-12-08T04:01:54.551Z,63.80
2018-12-08T04:11:57.007Z,63.30
2018-12-08T04:21:59.515Z,63.30
2018-12-08T04:32:02.043Z,62.50
2018-12-08T04:42:04.507Z,61.20
2018-12-08T04:52:06.998Z,60.80
2018-12-08T05:02:09.457Z,61.60
2018-12-08T05:12:11.906Z,63.60
2018-12-08T05:22:14.459Z,63.70
2018-12-08T05:32:16.908Z,63.30
2018-12-08T05:42:19.615Z,62.80
2018-12-08T05:52:22.111Z,62.20
2018-12-08T06:02:24.576Z,62.50
2018-12-08T06:12:27.035Z,62.90
2018-12-08T06:22:29.496Z,63.50
2018-12-08T06:32:32.061Z,64.00
2018-12-08T06:42:34.555Z,64.60
2018-12-08T06:52:37.009Z,65.30
2018-12-08T07:02:39.471Z,65.80
2018-12-08T07:12:41.928Z,66.20
2018-12-08T07:22:44.403Z,67.20
2018-12-08T07:32:47.177Z,68.10
2018-12-08T07:42:49.638Z,68.80
2018-12-08T07:52:52.132Z,69.10
2018-12-08T08:02:54.586Z,68.70
2018-12-08T08:12:57.040Z,69.00
2018-12-08T08:22:59.535Z,69.20
2018-12-08T08:33:01.996Z,68.80
2018-12-08T08:43:04.451Z,67.20
2018-12-08T08:53:07.111Z,67.60
2018-12-08T09:03:10.146Z,67.20
2018-12-08T09:13:12.608Z,66.60
2018-12-08T09:23:15.063Z,65.20
2018-12-08T09:33:17.772Z,64.40
2018-12-08T09:43:20.256Z,65.30
2018-12-08T09:53:22.886Z,66.20
2018-12-08T10:03:25.390Z,65.90
2018-12-08T10:13:27.839Z,65.70
2018-12-08T10:23:30.459Z,67.20
2018-12-08T10:33:32.956Z,67.80
2018-12-08T10:43:35.411Z,67.70
2018-12-08T10:53:37.867Z,69.20
2018-12-08T11:03:46.711Z,71.20
2018-12-08T11:13:49.171Z,72.80
2018-12-08T11:23:52.661Z,73.70
2018-12-08T11:33:55.121Z,73.70
2018-12-08T11:43:57.580Z,74.40
2018-12-08T11:54:00.089Z,74.30
2018-12-08T12:04:02.564Z,73.70
2018-12-08T12:14:05.025Z,72.90
2018-12-08T12:24:07.711Z,72.50
2018-12-08T12:34:10.188Z,72.10
2018-12-08T12:44:12.651Z,71.90
2018-12-08T12:54:15.148Z,72.60
2018-12-08T13:04:17.603Z,71.60
2018-12-08T13:14:20.056Z,71.20
2018-12-08T13:24:26.392Z,71.90
2018-12-08T13:34:28.883Z,71.10
2018-12-08T13:44:35.169Z,71.70
2018-12-08T13:54:46.684Z,71.60
2018-12-08T14:04:49.139Z,72.20
2018-12-08T14:14:51.610Z,73.10
2018-12-08T14:24:54.067Z,73.10
2018-12-08T14:34:56.536Z,72.80
2018-12-08T14:44:58.987Z,72.80
2018-12-08T14:55:01.453Z,73.30
2018-12-08T15:05:05.385Z,74.20
2018-12-08T15:15:07.920Z,73.90
2018-12-08T15:25:10.434Z,74.30
2018-12-08T15:35:12.894Z,74.70
2018-12-08T15:45:15.419Z,74.90
2018-12-08T15:55:17.862Z,74.00
2018-12-08T16:05:20.517Z,73.70
2018-12-08T16:15:22.978Z,74.50
2018-12-08T16:25:25.522Z,77.50
2018-12-08T16:35:28.016Z,78.40
2018-12-08T16:45:30.523Z,78.20
2018-12-08T16:55:33.064Z,78.30
2018-12-08T17:05:35.557Z,78.80
2018-12-08T17:15:38.050Z,79.00
2018-12-08T17:25:40.511Z,78.60
2018-12-08T17:35:43.098Z,78.70
2018-12-08T17:45:45.595Z,78.00
2018-12-08T17:55:48.063Z,77.40
2018-12-08T18:05:50.559Z,77.90
2018-12-08T18:15:53.055Z,77.80
2018-12-08T18:25:55.507Z,77.80
2018-12-08T18:35:57.975Z,78.50
2018-12-08T18:46:00.427Z,78.50
2018-12-08T18:56:02.887Z,78.10
2018-12-08T19:06:05.464Z,78.60
2018-12-08T19:16:08.032Z,78.30
2018-12-08T19:26:10.631Z,78.50
2018-12-08T19:36:13.083Z,78.20
2018-12-08T19:46:15.545Z,77.60
2018-12-08T19:56:18.003Z,76.60
2018-12-08T20:06:20.490Z,77.40
2018-12-08T20:16:23.001Z,78.30
2018-12-08T20:26:27.507Z,78.30
2018-12-08T20:36:29.959Z,78.40
2018-12-08T20:46:32.413Z,77.80
2018-12-08T20:56:34.874Z,78.30
2018-12-08T21:06:37.444Z,78.40
2018-12-08T21:16:39.900Z,78.40
2018-12-08T21:26:42.436Z,79.00
2018-12-08T21:36:44.913Z,79.40
2018-12-08T21:46:47.417Z,79.70
2018-12-08T21:56:49.897Z,79.20
2018-12-08T22:06:52.397Z,79.30
2018-12-08T22:16:55.052Z,79.60
2018-12-08T22:26:57.603Z,79.10
2018-12-08T22:37:00.115Z,79.50
2018-12-08T22:47:02.583Z,79.90
2018-12-08T22:57:05.031Z,79.80
2018-12-08T23:07:07.539Z,80.90
2018-12-08T23:17:10.029Z,80.60
2018-12-08T23:27:12.580Z,80.60
2018-12-08T23:37:15.027Z,80.30
2018-12-08T23:47:17.557Z,80.80
2018-12-08T23:57:20.028Z,80.20
